Sabinopolis, Brazil
Current Conditions -  °F | °C
As of 4:00 AM on Thursday 23 Oct 2014 (Local Time) from SBCF Reporting Station
Broken Clouds Broken Clouds  
Wind Chill: 64°   Ceiling: 2500
Heat Index: 64°   Visibility: 6mi
Dew Point: 59°   Wind: 12mph
Humidity: 83%   Direction: 120°ESE
Pressure: 30.15"   Gusts: NA
Location:  18.67°S, 43.08°W
Report Text: SBCF 230600Z 12010KT 9999 BKN025 18/15 Q1021
Loading
Personal Weather Stations






























Interactive Weather Map
Tropical Storm Tracking
New forecast layout! Learn more

10-Day Weather Forecast

Advertisements
Track Severe Weather on mobile